BKPR/PRN METAR and TAF weather

Enter ICAO airport designator
Station Type Date Time Source
BKPR METAR 2022/06/28 09:00 UTC NOAA

BKPR 280900Z VRB03KT CAVOK 28/13 Q1019 NOSIG


Station Type Date Time Source
BKPR Decoded METAR 2022/06/28 09:00 UTC NOAA

Station name not available
Jun 28, 2022 - 05:00 AM EDT / 2022.06.28 0900 UTC
Wind: Variable at 3 MPH (3 KT):0
Visibility: greater than 7 mile(s):0
Temperature: 82 F (28 C)
Dew Point: 55 F (13 C)
Relative Humidity: 39%
Pressure (altimeter): 30.09 in. Hg (1019 hPa)
ob: BKPR 280900Z VRB03KT CAVOK 28/13 Q1019 NOSIG
cycle: 9

Station Type Date Time Source
BKPR TAF 2022/06/28 06:30 UTC NOAA

TAF BKPR 280530Z 2806/2906 02006KT 9999 FEW050
TEMPO 2811/2819 03016KT

Example: see airport list